Time;durP1;ratioP1;P1;durP2;ratioP2;P2;SDS_P1;SDS_P2;PMS_P1;PMS_P2;Temp;Humidity;BMP_temperature;BMP_pressure;BME280_temperature;BME280_humidity;BME280_pressure;Samples;Min_cycle;Max_cycle;Signal;HPM_P1;HPM_P2
2021/08/22 00:00:59;;;;;;;9.73;8.05;;;;;;;20.49;69.73;101424.16;10458439;28;20036;-83
2021/08/22 00:06:00;;;;;;;12.15;10.85;;;;;;;20.24;69.90;101411.66;10474233;28;20028;-83
2021/08/22 00:11:00;;;;;;;10.75;9.73;;;;;;;20.30;70.44;101416.16;10492937;28;20515;-83
2021/08/22 00:16:01;;;;;;;15.20;8.75;;;;;;;20.39;69.32;101403.66;10474562;28;20037;-83
2021/08/22 00:21:01;;;;;;;13.18;10.60;;;;;;;20.34;70.15;101380.72;10458165;28;20037;-82
2021/08/22 00:26:05;;;;;;;14.23;11.85;;;;;;;20.07;69.76;101348.41;10440118;28;20376;-83
2021/08/22 00:31:05;;;;;;;12.18;11.07;;;;;;;20.49;70.10;101407.66;10473680;28;20152;-82
2021/08/22 00:36:06;;;;;;;13.23;11.50;;;;;;;20.49;69.86;101405.75;10457422;28;20119;-83
2021/08/22 00:41:07;;;;;;;12.70;11.23;;;;;;;20.18;70.46;101371.41;10457635;28;20064;-83
2021/08/22 00:46:13;;;;;;;15.80;11.38;;;;;;;20.44;70.33;101411.16;10456513;28;20479;-83
2021/08/22 00:51:15;;;;;;;12.40;10.23;;;;;;;20.37;70.71;101416.00;10478223;28;20029;-82
2021/08/22 00:56:16;;;;;;;14.52;12.13;;;;;;;20.34;70.52;101408.25;10480099;28;20040;-82
2021/08/22 01:01:18;;;;;;;19.75;11.43;;;;;;;20.38;70.73;101409.41;10480829;28;20107;-82
2021/08/22 01:07:03;;;;;;;15.88;11.45;;;;;;;20.44;69.58;101402.91;10462115;28;20037;-83
2021/08/22 01:12:08;;;;;;;24.13;12.63;;;;;;;20.52;70.37;101408.03;10489831;28;20102;-82
2021/08/22 01:17:09;;;;;;;14.05;11.13;;;;;;;20.29;70.55;101375.13;10441839;28;20100;-82
2021/08/22 01:22:09;;;;;;;13.15;11.27;;;;;;;20.44;70.62;101400.13;10457394;28;20035;-83
2021/08/22 01:27:10;;;;;;;13.10;8.93;;;;;;;20.21;70.61;101376.41;10457275;28;20445;-83
2021/08/22 01:32:10;;;;;;;8.02;6.40;;;;;;;20.23;70.93;101399.00;10458380;28;20036;-83
2021/08/22 01:37:11;;;;;;;6.70;4.68;;;;;;;20.14;70.63;101406.00;10457905;28;20082;-83
2021/08/22 01:42:11;;;;;;;5.60;3.90;;;;;;;20.19;71.00;101395.88;10456906;28;20079;-83
2021/08/22 01:47:13;;;;;;;12.82;3.35;;;;;;;20.12;71.03;101397.97;10440201;28;20140;-82
2021/08/22 01:52:15;;;;;;;5.82;3.47;;;;;;;20.13;70.91;101399.66;10455367;28;20399;-82
2021/08/22 01:57:17;;;;;;;4.50;3.40;;;;;;;20.08;70.79;101395.97;10473101;28;20435;-82
2021/08/22 02:02:19;;;;;;;6.35;3.40;;;;;;;19.93;70.68;101391.88;10490337;28;20059;-82
2021/08/22 02:07:20;;;;;;;4.75;3.75;;;;;;;19.78;70.86;101388.00;10456069;28;20029;-82
2021/08/22 02:12:21;;;;;;;3.40;3.10;;;;;;;19.70;71.52;101403.84;10454032;28;20431;-82
2021/08/22 02:17:21;;;;;;;4.82;2.75;;;;;;;19.82;71.26;101397.47;10470082;28;20037;-83
2021/08/22 02:22:23;;;;;;;6.63;3.38;;;;;;;19.50;70.82;101357.56;10452821;28;20153;-83
2021/08/22 02:27:28;;;;;;;5.28;2.90;;;;;;;19.62;70.45;101401.47;10496864;28;20040;-82
2021/08/22 02:32:28;;;;;;;5.60;4.10;;;;;;;19.50;70.83;101393.25;10474719;28;20440;-83
2021/08/22 02:37:29;;;;;;;3.25;2.92;;;;;;;19.44;70.61;101407.97;10457978;28;20033;-82
2021/08/22 02:42:29;;;;;;;9.50;4.65;;;;;;;19.24;71.04;101391.91;10472085;28;20050;-82
2021/08/22 02:47:30;;;;;;;13.25;4.00;;;;;;;19.32;71.34;101392.59;10471489;28;20048;-83
2021/08/22 02:52:38;;;;;;;10.10;5.18;;;;;;;19.48;71.47;101395.41;10454347;28;20137;-82
2021/08/22 02:57:40;;;;;;;3.88;3.55;;;;;;;19.16;71.26;101339.28;10471310;28;20435;-83
2021/08/22 03:02:40;;;;;;;9.30;4.65;;;;;;;19.32;71.10;101396.19;10470699;28;20476;-82
2021/08/22 03:07:41;;;;;;;11.20;5.03;;;;;;;19.26;71.09;101406.22;10471313;28;20024;-82
2021/08/22 03:12:43;;;;;;;6.50;5.70;;;;;;;19.19;71.39;101385.47;10437292;28;20036;-82
2021/08/22 03:17:43;;;;;;;6.85;5.68;;;;;;;18.63;71.16;101310.97;10452374;28;20037;-82
2021/08/22 03:22:44;;;;;;;16.00;9.25;;;;;;;18.85;71.31;101348.81;10450519;28;20036;-82
2021/08/22 03:27:44;;;;;;;13.60;9.15;;;;;;;19.18;71.38;101392.06;10468410;28;20140;-82
2021/08/22 03:32:45;;;;;;;19.60;13.93;;;;;;;19.13;71.18;101389.19;10470666;28;20427;-83
2021/08/22 03:37:46;;;;;;;15.80;12.40;;;;;;;19.11;71.67;101377.63;10453490;28;20497;-82
2021/08/22 03:42:46;;;;;;;29.50;16.52;;;;;;;19.20;72.08;101376.16;10466967;28;20119;-82
2021/08/22 03:47:48;;;;;;;34.70;24.33;;;;;;;19.19;71.97;101388.22;10433754;28;20025;-82
2021/08/22 03:52:51;;;;;;;33.78;22.40;;;;;;;19.32;72.33;101400.84;10450046;28;20041;-82
2021/08/22 03:57:52;;;;;;;42.70;25.52;;;;;;;19.26;72.02;101361.47;10466771;28;20040;-82
2021/08/22 04:02:54;;;;;;;46.10;26.75;;;;;;;19.67;71.92;101401.56;10451972;28;20213;-82
2021/08/22 04:07:55;;;;;;;41.72;28.77;;;;;;;19.56;71.51;101353.00;10452133;28;20036;-82
2021/08/22 04:12:57;;;;;;;51.60;32.17;;;;;;;19.78;71.69;101379.78;10453683;28;20098;-82
2021/08/22 04:17:58;;;;;;;60.67;37.70;;;;;;;19.82;71.62;101386.47;10470187;28;20063;-82
2021/08/22 04:22:58;;;;;;;55.13;35.05;;;;;;;19.86;71.25;101385.72;10489742;28;20037;-82
2021/08/22 04:27:59;;;;;;;42.40;32.17;;;;;;;19.91;71.67;101395.94;10478946;28;20447;-82
2021/08/22 04:32:59;;;;;;;37.53;29.27;;;;;;;19.91;71.84;101385.81;10484339;28;20441;-82
2021/08/22 04:38:01;;;;;;;42.03;30.10;;;;;;;19.90;72.21;101392.38;10468909;28;20039;-82
2021/08/22 04:43:02;;;;;;;51.08;30.23;;;;;;;19.96;72.02;101385.06;10483851;28;20040;-82
2021/08/22 04:48:03;;;;;;;36.45;28.20;;;;;;;20.00;71.82;101377.13;10484281;28;20139;-82
2021/08/22 04:53:04;;;;;;;43.75;29.23;;;;;;;20.00;71.94;101382.63;10501291;28;20119;-82
2021/08/22 04:58:04;;;;;;;36.63;28.40;;;;;;;20.05;71.71;101386.31;10466789;28;20389;-82
2021/08/22 05:03:05;;;;;;;28.23;24.15;;;;;;;20.08;71.61;101385.81;10499588;28;20230;-82
2021/08/22 05:08:06;;;;;;;29.83;22.30;;;;;;;20.00;71.75;101383.47;10482462;28;20128;-82
2021/08/22 05:13:07;;;;;;;27.27;21.15;;;;;;;19.85;71.63;101375.81;10485914;28;20047;-82
2021/08/22 05:18:08;;;;;;;22.70;17.55;;;;;;;19.89;70.96;101376.13;10469184;28;20067;-82
2021/08/22 05:23:09;;;;;;;31.02;18.98;;;;;;;19.73;71.56;101367.63;10484813;28;20095;-82
2021/08/22 05:28:10;;;;;;;24.45;19.40;;;;;;;19.91;71.69;101387.69;10485249;28;20055;-82
2021/08/22 05:33:10;;;;;;;27.60;19.80;;;;;;;19.94;71.73;101389.94;10469012;28;20048;-82
2021/08/22 05:38:10;;;;;;;28.95;19.45;;;;;;;19.95;71.86;101397.13;10485287;28;20518;-82
2021/08/22 05:43:11;;;;;;;28.95;18.67;;;;;;;19.92;71.55;101389.38;10486541;28;20042;-82
2021/08/22 05:48:11;;;;;;;20.88;17.85;;;;;;;19.82;71.45;101364.47;10504639;28;20039;-83
2021/08/22 05:53:12;;;;;;;28.05;18.05;;;;;;;20.09;71.44;101395.72;10485892;28;20036;-83
2021/08/22 05:58:13;;;;;;;20.50;16.30;;;;;;;20.00;71.38;101372.47;10487266;28;20036;-83
2021/08/22 06:03:14;;;;;;;26.48;16.38;;;;;;;20.14;71.36;101398.56;10487791;28;20036;-82
2021/08/22 06:08:16;;;;;;;25.42;15.18;;;;;;;20.31;71.08;101386.72;10486452;28;20097;-82
2021/08/22 06:13:16;;;;;;;17.63;12.73;;;;;;;20.74;70.69;101398.97;10506554;28;20411;-82
2021/08/22 06:18:19;;;;;;;17.40;13.40;;;;;;;20.76;70.60;101402.31;10495351;28;20040;-83
2021/08/22 06:23:19;;;;;;;20.75;11.20;;;;;;;20.82;70.02;101401.28;10507609;28;20036;-83
2021/08/22 06:28:21;;;;;;;11.73;10.52;;;;;;;20.78;69.92;101427.66;10486093;28;20110;-83
2021/08/22 06:33:22;;;;;;;11.68;10.20;;;;;;;20.67;70.32;101413.72;10469343;28;20040;-83
2021/08/22 06:38:23;;;;;;;18.70;10.68;;;;;;;20.84;70.26;101419.22;10469586;28;20446;-83
2021/08/22 06:43:24;;;;;;;22.75;11.73;;;;;;;20.77;70.26;101421.34;10485264;28;20044;-83
2021/08/22 06:48:25;;;;;;;16.00;9.48;;;;;;;20.95;70.07;101422.94;10499284;28;20032;-83
2021/08/22 06:53:25;;;;;;;13.40;10.45;;;;;;;20.90;69.92;101426.47;10481612;28;20041;-82
2021/08/22 06:58:26;;;;;;;16.70;11.07;;;;;;;20.90;69.71;101433.91;10481897;28;20033;-82
2021/08/22 07:03:27;;;;;;;24.35;11.38;;;;;;;20.84;70.04;101444.00;10481857;28;20090;-83
2021/08/22 07:08:29;;;;;;;18.30;11.90;;;;;;;20.66;70.00;101392.81;10480869;28;20133;-82
2021/08/22 07:13:30;;;;;;;12.98;11.00;;;;;;;20.98;70.31;101436.19;10464898;28;20141;-83
2021/08/22 07:18:32;;;;;;;25.13;10.60;;;;;;;21.16;69.96;101442.50;10464644;28;20413;-83
2021/08/22 07:23:34;;;;;;;17.92;11.25;;;;;;;21.27;69.69;101425.03;10463967;28;20115;-82
2021/08/22 07:28:34;;;;;;;13.07;11.57;;;;;;;21.52;69.74;101452.91;10498205;28;20409;-82
2021/08/22 07:33:35;;;;;;;10.90;9.18;;;;;;;21.82;68.83;101446.06;10463962;28;20049;-82
2021/08/22 07:38:37;;;;;;;15.68;9.30;;;;;;;21.78;68.80;101396.16;10463845;28;20039;-82
2021/08/22 07:43:38;;;;;;;12.60;9.30;;;;;;;22.11;67.41;101397.00;10464000;28;20472;-81
2021/08/22 07:48:40;;;;;;;11.43;8.50;;;;;;;22.63;67.34;101443.25;10405515;28;20047;-81
2021/08/22 07:53:41;;;;;;;15.57;9.48;;;;;;;22.60;66.78;101427.22;10462990;28;20096;-81
2021/08/22 07:58:42;;;;;;;13.15;9.25;;;;;;;23.20;65.80;101436.19;10497529;28;20039;-81
2021/08/22 08:03:43;;;;;;;8.57;7.78;;;;;;;24.94;63.99;101439.19;10479912;28;20036;-81
2021/08/22 08:08:45;;;;;;;10.95;7.63;;;;;;;26.17;61.48;101445.84;10497479;28;20459;-81
2021/08/22 08:13:45;;;;;;;5.85;5.30;;;;;;;26.92;58.68;101450.19;10497587;28;20048;-80
2021/08/22 08:18:45;;;;;;;9.27;7.18;;;;;;;28.13;56.25;101443.34;10496452;28;20457;-82
2021/08/22 08:23:46;;;;;;;7.22;5.97;;;;;;;27.40;55.54;101453.00;10496831;28;20043;-81
2021/08/22 08:28:46;;;;;;;6.25;5.50;;;;;;;26.10;56.82;101412.03;10478891;28;20167;-81
2021/08/22 08:33:47;;;;;;;10.65;6.60;;;;;;;25.97;58.78;101451.53;10480253;28;20090;-86
2021/08/22 08:38:47;;;;;;;9.10;6.15;;;;;;;25.72;57.98;101458.88;10496804;28;20032;-82
2021/08/22 08:43:48;;;;;;;10.15;6.28;;;;;;;25.52;62.57;101462.56;10478993;28;20036;-82
2021/08/22 08:48:52;;;;;;;7.85;6.38;;;;;;;24.81;60.51;101452.50;10497055;28;20446;-82
2021/08/22 08:54:04;;;;;;;17.73;6.80;;;;;;;24.82;61.42;101456.97;10492088;28;20032;-79
2021/08/22 08:59:05;;;;;;;11.00;7.43;;;;;;;24.55;60.97;101461.97;10514953;28;20538;-84
2021/08/22 09:04:25;;;;;;;9.73;6.93;;;;;;;23.23;63.44;101474.31;10526759;28;20135;-83
2021/08/22 09:10:02;;;;;;;14.20;8.55;;;;;;;22.37;65.93;101469.84;10511635;28;20111;-81
2021/08/22 09:15:44;;;;;;;16.52;9.68;;;;;;;21.49;67.53;101472.72;10538641;28;20040;-80
2021/08/22 09:21:06;;;;;;;10.77;9.65;;;;;;;20.82;69.26;101435.16;10519214;28;20032;-84
2021/08/22 09:26:41;;;;;;;15.65;8.63;;;;;;;21.11;69.46;101479.91;10494022;28;20154;-82
2021/08/22 09:32:23;;;;;;;15.40;10.68;;;;;;;21.04;69.85;101489.44;10494345;28;20029;-84
2021/08/22 09:38:02;;;;;;;15.25;11.38;;;;;;;21.24;70.05;101488.88;10477567;28;20455;-83
2021/08/22 09:43:35;;;;;;;13.52;9.40;;;;;;;20.78;70.35;101425.75;10495492;28;20072;-83
2021/08/22 09:49:22;;;;;;;12.10;8.15;;;;;;;21.19;70.42;101497.91;10496950;28;20127;-82
2021/08/22 09:54:38;;;;;;;5.50;5.00;;;;;;;20.58;70.76;101444.69;10515100;28;20038;-82
2021/08/22 10:00:02;;;;;;;5.82;5.25;;;;;;;20.46;71.48;101497.03;10537675;28;20089;-87
2021/08/22 10:05:21;;;;;;;4.47;3.45;;;;;;;20.09;72.29;101535.13;10504412;28;20042;-84
2021/08/22 10:10:30;;;;;;;4.45;3.80;;;;;;;19.59;72.96;101528.34;10537362;28;20085;-82
2021/08/22 10:15:31;;;;;;;3.35;3.13;;;;;;;19.39;73.87;101530.63;10511082;28;20042;-82
2021/08/22 10:20:44;;;;;;;5.93;4.30;;;;;;;19.11;74.23;101512.13;10538604;28;20130;-79
2021/08/22 10:25:48;;;;;;;9.50;5.68;;;;;;;19.19;74.51;101507.13;10519851;28;20138;-80
2021/08/22 10:30:48;;;;;;;8.27;6.20;;;;;;;19.25;74.27;101497.91;10538590;28;20406;-81
2021/08/22 10:35:49;;;;;;;6.40;5.85;;;;;;;19.35;74.41;101512.97;10501372;28;20035;-81
2021/08/22 10:40:50;;;;;;;10.32;4.78;;;;;;;19.40;74.71;101515.78;10519108;28;20032;-82
2021/08/22 10:45:55;;;;;;;4.20;3.75;;;;;;;19.40;74.50;101505.69;10536110;28;20446;-81
2021/08/22 10:51:14;;;;;;;19.45;3.85;;;;;;;19.62;74.16;101530.59;10517914;28;20112;-82
2021/08/22 10:56:21;;;;;;;12.25;3.90;;;;;;;19.50;74.20;101496.81;10535470;28;20161;-82
2021/08/22 11:01:21;;;;;;;2.67;2.47;;;;;;;19.72;73.90;101532.75;10536206;28;20060;-83
2021/08/22 11:06:24;;;;;;;9.05;3.35;;;;;;;19.66;73.95;101517.22;10535828;28;20419;-85
2021/08/22 11:11:25;;;;;;;11.98;4.05;;;;;;;19.72;73.98;101539.06;10517731;28;20048;-83
2021/08/22 11:16:39;;;;;;;6.28;3.60;;;;;;;19.34;74.03;101481.91;10535446;28;20099;-81
2021/08/22 11:21:40;;;;;;;4.95;3.17;;;;;;;19.69;74.34;101541.47;10500391;28;20035;-81
2021/08/22 11:26:40;;;;;;;5.13;3.00;;;;;;;19.82;74.38;101546.69;10482158;28;20490;-83
2021/08/22 11:31:41;;;;;;;7.80;2.72;;;;;;;20.00;73.96;101544.84;10516642;28;20040;-83
2021/08/22 11:36:42;;;;;;;4.95;3.78;;;;;;;20.13;73.42;101542.66;10497632;28;20139;-83
2021/08/22 11:41:49;;;;;;;3.47;3.28;;;;;;;20.24;73.49;101548.34;10514431;28;20480;-82
2021/08/22 11:46:53;;;;;;;5.80;4.25;;;;;;;20.18;73.60;101550.97;10514898;28;20321;-84
2021/08/22 11:51:57;;;;;;;10.38;6.70;;;;;;;20.36;73.67;101552.69;10532845;28;20115;-82
2021/08/22 11:57:19;;;;;;;9.55;6.60;;;;;;;20.80;73.03;101539.16;10495732;28;20050;-82
2021/08/22 12:02:20;;;;;;;22.55;6.28;;;;;;;21.17;72.53;101526.81;10511213;28;20142;-84
2021/08/22 12:07:21;;;;;;;12.15;8.30;;;;;;;21.83;72.03;101517.53;10496178;28;20028;-81
2021/08/22 12:12:21;;;;;;;13.15;7.68;;;;;;;23.40;70.00;101518.34;10497121;28;20063;-82
2021/08/22 12:17:25;;;;;;;10.27;5.47;;;;;;;24.41;67.77;101508.75;10532131;28;20428;-82
2021/08/22 12:22:28;;;;;;;8.98;4.85;;;;;;;25.03;67.23;101504.00;10512700;28;20071;-82
2021/08/22 12:27:34;;;;;;;7.78;4.53;;;;;;;24.86;66.21;101503.50;10503792;28;20059;-82
2021/08/22 12:32:36;;;;;;;6.33;4.33;;;;;;;25.61;67.95;101479.44;10439340;28;20048;-82
2021/08/22 12:37:38;;;;;;;3.00;2.80;;;;;;;26.36;64.44;101503.47;10488787;28;20128;-82
2021/08/22 12:42:40;;;;;;;4.00;3.63;;;;;;;26.08;63.80;101497.53;10454450;28;20040;-82
2021/08/22 12:47:41;;;;;;;3.03;2.55;;;;;;;27.06;62.17;101514.28;10474352;28;20098;-81
2021/08/22 12:52:42;;;;;;;2.45;2.30;;;;;;;27.67;60.30;101521.94;10477581;28;20043;-81
2021/08/22 12:57:43;;;;;;;2.85;2.65;;;;;;;27.09;61.74;101520.06;10477433;28;20116;-81
2021/08/22 13:02:43;;;;;;;2.55;2.17;;;;;;;26.24;60.39;101547.41;10477753;28;20131;-81
2021/08/22 13:07:44;;;;;;;2.13;1.92;;;;;;;26.08;60.93;101549.44;10496178;28;20036;-82
2021/08/22 13:12:45;;;;;;;2.85;2.10;;;;;;;26.25;62.63;101515.75;10502209;28;20065;-82
2021/08/22 13:17:46;;;;;;;2.17;2.08;;;;;;;26.76;59.16;101566.22;10519151;28;20526;-82
2021/08/22 13:22:46;;;;;;;2.47;2.28;;;;;;;27.34;58.78;101570.97;10516946;28;20084;-83
2021/08/22 13:27:47;;;;;;;1.83;1.73;;;;;;;27.94;57.00;101540.78;10501032;28;20131;-83
2021/08/22 13:32:47;;;;;;;2.05;1.42;;;;;;;28.51;55.10;101533.28;10517537;28;20505;-83
2021/08/22 13:37:49;;;;;;;2.15;1.35;;;;;;;28.14;54.61;101536.06;10511838;28;20459;-82
2021/08/22 13:42:49;;;;;;;1.52;1.35;;;;;;;28.02;55.39;101565.19;10494137;28;20033;-83
2021/08/22 13:47:51;;;;;;;1.58;1.20;;;;;;;27.86;56.78;101583.22;10493309;28;20041;-82
2021/08/22 13:52:53;;;;;;;8.88;1.77;;;;;;;27.06;57.39;101587.38;10493335;28;20044;-81
2021/08/22 13:57:54;;;;;;;0.77;0.77;;;;;;;26.52;56.55;101576.44;10491604;28;20416;-80
2021/08/22 14:02:54;;;;;;;1.05;1.02;;;;;;;26.34;57.63;101595.38;10481017;28;20021;-86
2021/08/22 14:07:55;;;;;;;1.08;1.08;;;;;;;26.02;58.36;101601.38;10464510;28;20044;-81
2021/08/22 14:12:55;;;;;;;1.17;0.95;;;;;;;25.76;60.50;101603.41;10499579;28;20123;-82
2021/08/22 14:17:56;;;;;;;1.50;1.40;;;;;;;25.58;60.03;101601.22;10483423;28;20403;-83
2021/08/22 14:22:59;;;;;;;1.60;1.50;;;;;;;25.55;60.05;101602.63;10500628;28;20464;-82
2021/08/22 14:27:59;;;;;;;1.98;1.30;;;;;;;25.38;60.09;101615.97;10482717;28;20408;-82
2021/08/22 14:32:59;;;;;;;2.13;2.03;;;;;;;25.49;61.75;101612.91;10499562;28;20119;-82
2021/08/22 14:38:04;;;;;;;2.30;1.42;;;;;;;26.02;59.88;101608.88;10482479;28;20127;-82
2021/08/22 14:43:05;;;;;;;1.35;1.25;;;;;;;26.17;59.24;101598.53;10500528;28;20056;-82
2021/08/22 14:48:05;;;;;;;0.90;0.90;;;;;;;26.30;58.60;101619.28;10498786;28;20439;-82
2021/08/22 14:53:06;;;;;;;1.60;1.50;;;;;;;25.66;60.56;101618.13;10481567;28;20083;-82
2021/08/22 14:58:07;;;;;;;2.58;1.52;;;;;;;25.71;58.83;101633.91;10481655;28;20036;-82
2021/08/22 15:03:08;;;;;;;1.30;1.20;;;;;;;25.27;59.11;101635.41;10464975;28;20051;-82
2021/08/22 15:08:11;;;;;;;1.48;1.38;;;;;;;24.75;61.36;101592.13;10480593;28;20039;-82
2021/08/22 15:13:15;;;;;;;2.30;2.03;;;;;;;25.05;60.41;101630.09;10464594;28;20052;-82
2021/08/22 15:18:15;;;;;;;1.08;1.08;;;;;;;25.21;59.50;101624.59;10500757;28;20040;-82
2021/08/22 15:23:16;;;;;;;2.13;1.55;;;;;;;25.60;58.55;101627.56;10480068;28;20062;-82
2021/08/22 15:28:16;;;;;;;1.80;1.70;;;;;;;25.44;60.68;101640.63;10480181;28;20139;-82
2021/08/22 15:33:17;;;;;;;1.80;1.70;;;;;;;25.48;59.32;101636.19;10497262;28;20115;-82
2021/08/22 15:38:18;;;;;;;2.53;1.90;;;;;;;25.48;61.01;101635.34;10463335;28;20044;-83
2021/08/22 15:43:19;;;;;;;10.48;2.45;;;;;;;25.43;61.78;101644.53;10498559;28;20035;-82
2021/08/22 15:48:19;;;;;;;1.77;1.67;;;;;;;25.38;60.47;101660.34;10496634;28;20552;-82
2021/08/22 15:53:20;;;;;;;7.72;2.90;;;;;;;25.47;60.96;101661.44;10462744;28;20047;-83
2021/08/22 15:58:21;;;;;;;3.13;1.75;;;;;;;25.03;60.55;101675.81;10463389;28;20035;-82
2021/08/22 16:03:23;;;;;;;3.03;1.90;;;;;;;24.85;61.67;101671.63;10496225;28;20064;-82
2021/08/22 16:08:23;;;;;;;7.80;1.77;;;;;;;24.69;61.72;101679.09;10479724;28;20082;-82
2021/08/22 16:13:24;;;;;;;2.28;1.70;;;;;;;24.46;62.55;101669.34;10479887;28;20041;-82
2021/08/22 16:18:30;;;;;;;2.42;2.20;;;;;;;24.24;63.36;101674.19;10463158;28;20051;-82
2021/08/22 16:23:31;;;;;;;;;;;;;;;24.07;66.34;101688.25;10489828;28;20058;-83
2021/08/22 16:28:34;;;;;;;2.72;2.53;;;;;;;23.86;63.73;101699.19;10504381;28;20062;-83
2021/08/22 16:33:35;;;;;;;2.03;1.92;;;;;;;23.29;66.20;101690.72;10489311;28;20047;-83
2021/08/22 16:38:35;;;;;;;4.40;3.30;;;;;;;22.89;66.47;101703.03;10486798;28;20079;-83
2021/08/22 16:43:36;;;;;;;13.68;4.70;;;;;;;22.62;66.97;101706.63;10470688;28;20041;-83
2021/08/22 16:48:36;;;;;;;7.47;3.90;;;;;;;22.04;67.53;101645.44;10487058;28;20029;-83
2021/08/22 16:53:38;;;;;;;8.82;4.68;;;;;;;22.26;68.06;101702.59;10504126;28;20031;-83
2021/08/22 16:58:39;;;;;;;6.60;5.90;;;;;;;21.89;68.49;101664.56;10470904;28;20032;-83
2021/08/22 17:03:40;;;;;;;5.15;4.72;;;;;;;22.00;68.81;101718.75;10486487;28;20036;-83
2021/08/22 17:08:41;;;;;;;5.15;4.57;;;;;;;21.81;69.30;101726.47;10486339;28;20400;-83
2021/08/22 17:13:43;;;;;;;9.20;4.20;;;;;;;21.41;69.91;101678.97;10486048;28;20076;-83
2021/08/22 17:18:45;;;;;;;4.82;4.43;;;;;;;21.59;69.66;101720.06;10487470;28;20473;-83
2021/08/22 17:23:45;;;;;;;8.45;4.70;;;;;;;21.42;69.41;101698.03;10469996;28;20365;-83
2021/08/22 17:28:49;;;;;;;24.13;5.57;;;;;;;21.65;69.98;101729.25;10469534;28;20048;-83
2021/08/22 17:33:51;;;;;;;18.67;5.22;;;;;;;21.45;70.68;101732.53;10503490;28;20040;-83
2021/08/22 17:38:53;;;;;;;10.32;5.38;;;;;;;21.48;70.32;101743.88;10486622;28;20035;-83
2021/08/22 17:43:53;;;;;;;10.13;7.15;;;;;;;20.83;72.02;101750.63;10484652;28;20052;-80
2021/08/22 17:48:54;;;;;;;12.07;7.80;;;;;;;20.74;72.27;101752.13;10502899;28;20489;-80
2021/08/22 17:53:54;;;;;;;15.02;7.50;;;;;;;20.71;72.98;101746.25;10483982;28;20085;-81
2021/08/22 17:58:55;;;;;;;8.50;7.70;;;;;;;20.69;72.78;101745.69;10473181;28;20036;-80
2021/08/22 18:03:55;;;;;;;14.60;7.97;;;;;;;20.65;73.10;101762.69;10485380;28;20050;-80
2021/08/22 18:08:56;;;;;;;17.88;9.77;;;;;;;20.48;73.37;101769.97;10502423;28;20094;-80
2021/08/22 18:13:56;;;;;;;18.88;8.13;;;;;;;20.40;73.48;101767.63;10469538;28;20106;-81
2021/08/22 18:18:57;;;;;;;19.52;9.43;;;;;;;20.46;73.59;101788.66;10487778;28;20094;-80
2021/08/22 18:23:57;;;;;;;14.50;6.95;;;;;;;20.38;73.75;101789.00;10483305;28;20032;-80
2021/08/22 18:28:59;;;;;;;17.50;9.65;;;;;;;20.48;73.44;101794.72;10485005;28;20055;-80
2021/08/22 18:34:00;;;;;;;24.55;8.70;;;;;;;20.20;74.11;101792.75;10483892;28;20046;-81
2021/08/22 18:39:00;;;;;;;14.32;7.18;;;;;;;20.31;73.93;101796.56;10483612;28;20036;-80
2021/08/22 18:44:01;;;;;;;13.52;8.05;;;;;;;20.16;74.37;101808.03;10482400;28;20480;-80
2021/08/22 18:49:01;;;;;;;9.80;7.63;;;;;;;20.28;73.91;101819.06;10499190;28;20028;-80
2021/08/22 18:54:01;;;;;;;20.60;8.95;;;;;;;20.29;73.84;101828.97;10499480;28;20480;-81
2021/08/22 18:59:03;;;;;;;28.27;7.63;;;;;;;20.05;73.66;101784.16;10482055;28;20121;-81
2021/08/22 19:04:04;;;;;;;18.83;6.72;;;;;;;20.22;73.65;101831.84;10465391;28;20028;-81
2021/08/22 19:09:05;;;;;;;13.65;8.93;;;;;;;19.94;73.75;101851.78;10499178;28;20480;-81
2021/08/22 19:14:06;;;;;;;10.45;5.05;;;;;;;19.92;73.91;101862.19;10499303;28;20044;-81
2021/08/22 19:19:06;;;;;;;10.85;6.90;;;;;;;19.73;74.05;101869.69;10499233;28;20476;-80
2021/08/22 19:24:07;;;;;;;8.82;6.28;;;;;;;19.47;74.14;101837.91;10497836;28;20128;-81
2021/08/22 19:29:08;;;;;;;8.07;7.18;;;;;;;19.66;74.40;101864.28;10497041;28;20041;-81
2021/08/22 19:34:08;;;;;;;14.25;7.85;;;;;;;19.70;74.23;101868.22;10498471;28;20037;-81
2021/08/22 19:39:09;;;;;;;12.98;8.02;;;;;;;19.68;74.34;101880.53;10463890;28;20028;-81
2021/08/22 19:44:12;;;;;;;16.95;7.45;;;;;;;19.66;74.42;101888.19;10498026;28;20040;-81
2021/08/22 19:49:12;;;;;;;7.65;6.97;;;;;;;19.58;74.37;101872.00;10463952;28;20064;-81
2021/08/22 19:54:13;;;;;;;13.93;7.10;;;;;;;19.85;74.07;101909.03;10479070;28;20040;-81
2021/08/22 19:59:15;;;;;;;11.93;6.07;;;;;;;19.82;73.96;101908.66;10497980;28;20036;-81
2021/08/22 20:04:18;;;;;;;10.27;7.10;;;;;;;19.89;73.94;101917.66;10498582;28;20036;-80
2021/08/22 20:09:18;;;;;;;22.45;7.90;;;;;;;19.89;74.06;101914.91;10480639;28;20036;-81
2021/08/22 20:14:20;;;;;;;16.98;8.57;;;;;;;19.86;74.44;101909.88;10479574;28;20041;-81
2021/08/22 20:19:20;;;;;;;11.18;7.15;;;;;;;19.69;73.94;101893.22;10479666;28;20029;-81
2021/08/22 20:24:21;;;;;;;16.02;7.72;;;;;;;19.75;74.46;101914.25;10496574;28;20111;-82
2021/08/22 20:29:22;;;;;;;15.88;6.93;;;;;;;19.74;74.70;101932.66;10496162;28;20399;-81
2021/08/22 20:34:22;;;;;;;11.02;5.75;;;;;;;19.65;74.97;101925.78;10497555;28;20040;-81
2021/08/22 20:39:23;;;;;;;20.75;6.20;;;;;;;19.71;74.30;101930.34;10462951;28;20391;-81
2021/08/22 20:44:27;;;;;;;20.30;7.40;;;;;;;19.75;74.15;101930.75;10478648;28;20052;-82
2021/08/22 20:49:27;;;;;;;6.78;6.15;;;;;;;19.79;74.37;101931.13;10479686;28;20060;-81
2021/08/22 20:54:28;;;;;;;13.60;5.82;;;;;;;19.83;74.34;101935.06;10478633;28;20060;-82
2021/08/22 20:59:28;;;;;;;11.02;6.13;;;;;;;19.58;75.10;101926.94;10479178;28;20025;-81
2021/08/22 21:04:30;;;;;;;11.40;6.57;;;;;;;19.60;74.72;101922.91;10495881;28;20029;-81
2021/08/22 21:09:32;;;;;;;23.48;7.35;;;;;;;19.80;74.38;101941.88;10485993;28;20024;-82
2021/08/22 21:14:32;;;;;;;18.30;6.38;;;;;;;19.77;74.16;101909.34;10469874;28;20039;-82
2021/08/22 21:19:33;;;;;;;12.77;6.57;;;;;;;19.85;74.69;101935.69;10486468;28;20021;-81
2021/08/22 21:24:33;;;;;;;21.40;7.13;;;;;;;19.79;75.26;101942.13;10503048;28;20552;-82
2021/08/22 21:29:35;;;;;;;16.67;6.55;;;;;;;19.82;75.14;101942.50;10504051;28;20392;-81
2021/08/22 21:34:35;;;;;;;9.40;5.97;;;;;;;19.89;74.83;101950.63;10453070;28;20036;-81
2021/08/22 21:39:36;;;;;;;7.50;4.85;;;;;;;19.50;75.70;101959.16;10503688;28;20028;-81
2021/08/22 21:44:39;;;;;;;9.23;6.20;;;;;;;19.32;75.25;101936.38;10485382;28;20041;-81
2021/08/22 21:49:43;;;;;;;9.10;5.65;;;;;;;19.37;74.88;101915.38;10468554;28;20032;-81
2021/08/22 21:54:44;;;;;;;5.25;4.57;;;;;;;19.59;75.11;101964.31;10484317;28;20032;-81
2021/08/22 21:59:44;;;;;;;17.20;6.13;;;;;;;19.46;74.52;101943.34;10467853;28;20147;-82
2021/08/22 22:04:45;;;;;;;8.80;4.47;;;;;;;19.05;74.66;101881.78;10484574;28;20036;-82
2021/08/22 22:09:51;;;;;;;13.90;5.30;;;;;;;19.39;74.84;101953.59;10484554;28;20506;-81
2021/08/22 22:14:52;;;;;;;15.03;6.13;;;;;;;19.44;74.35;101975.72;10468087;28;20071;-82
2021/08/22 22:19:53;;;;;;;11.57;4.20;;;;;;;19.51;74.59;101971.00;10481489;28;20052;-82
2021/08/22 22:24:55;;;;;;;5.05;3.70;;;;;;;19.44;74.08;101982.06;10480313;28;20500;-82
2021/08/22 22:29:55;;;;;;;3.97;3.15;;;;;;;19.48;74.37;101975.03;10500935;28;20049;-82
2021/08/22 22:34:56;;;;;;;4.15;3.13;;;;;;;19.41;74.36;101984.44;10483558;28;20040;-82
2021/08/22 22:39:57;;;;;;;3.15;2.85;;;;;;;19.42;74.12;101989.69;10483224;28;20115;-82
2021/08/22 22:44:58;;;;;;;6.15;3.42;;;;;;;19.50;74.61;101985.81;10466450;28;20123;-82
2021/08/22 22:49:59;;;;;;;13.30;4.80;;;;;;;19.51;74.42;101995.72;10500623;28;20040;-82
2021/08/22 22:55:01;;;;;;;6.72;3.05;;;;;;;19.51;74.60;101971.00;10482168;28;20081;-82
2021/08/22 23:00:01;;;;;;;5.00;3.45;;;;;;;19.57;74.31;102000.28;10482483;28;20384;-82